sensor_id;sensor_type;location;lat;lon;timestamp;P1;durP1;ratioP1;P2;durP2;ratioP2
15616;SDS011;7908;51.688;7.130;2023-02-28T00:00:37;4.70;;;3.00;;
15616;SDS011;7908;51.688;7.130;2023-02-28T00:03:06;5.27;;;3.53;;
15616;SDS011;7908;51.688;7.130;2023-02-28T00:05:35;5.93;;;3.00;;
15616;SDS011;7908;51.688;7.130;2023-02-28T00:08:03;3.23;;;2.60;;
15616;SDS011;7908;51.688;7.130;2023-02-28T00:10:33;6.53;;;3.53;;
15616;SDS011;7908;51.688;7.130;2023-02-28T00:13:03;5.37;;;2.90;;
15616;SDS011;7908;51.688;7.130;2023-02-28T00:15:34;6.03;;;3.27;;
15616;SDS011;7908;51.688;7.130;2023-02-28T00:18:03;4.37;;;2.90;;
15616;SDS011;7908;51.688;7.130;2023-02-28T00:20:32;10.50;;;5.17;;
15616;SDS011;7908;51.688;7.130;2023-02-28T00:23:01;12.07;;;5.30;;
15616;SDS011;7908;51.688;7.130;2023-02-28T00:25:29;7.50;;;3.63;;
15616;SDS011;7908;51.688;7.130;2023-02-28T00:27:58;5.83;;;3.17;;
15616;SDS011;7908;51.688;7.130;2023-02-28T00:30:26;6.57;;;3.00;;
15616;SDS011;7908;51.688;7.130;2023-02-28T00:32:56;6.53;;;2.90;;
15616;SDS011;7908;51.688;7.130;2023-02-28T00:35:26;4.30;;;2.97;;
15616;SDS011;7908;51.688;7.130;2023-02-28T00:37:54;6.97;;;3.30;;
15616;SDS011;7908;51.688;7.130;2023-02-28T00:40:23;6.70;;;2.93;;
15616;SDS011;7908;51.688;7.130;2023-02-28T00:42:51;9.50;;;3.20;;
15616;SDS011;7908;51.688;7.130;2023-02-28T00:45:20;4.07;;;3.23;;
15616;SDS011;7908;51.688;7.130;2023-02-28T00:47:49;5.27;;;3.10;;
15616;SDS011;7908;51.688;7.130;2023-02-28T00:50:19;4.33;;;2.77;;
15616;SDS011;7908;51.688;7.130;2023-02-28T00:52:48;4.67;;;3.10;;
15616;SDS011;7908;51.688;7.130;2023-02-28T00:55:17;3.70;;;3.07;;
15616;SDS011;7908;51.688;7.130;2023-02-28T00:57:46;5.30;;;2.77;;
15616;SDS011;7908;51.688;7.130;2023-02-28T01:00:15;9.63;;;3.13;;
15616;SDS011;7908;51.688;7.130;2023-02-28T01:02:43;7.37;;;3.07;;
15616;SDS011;7908;51.688;7.130;2023-02-28T01:05:12;4.97;;;2.83;;
15616;SDS011;7908;51.688;7.130;2023-02-28T01:07:42;4.57;;;2.83;;
15616;SDS011;7908;51.688;7.130;2023-02-28T01:10:11;5.27;;;3.70;;
15616;SDS011;7908;51.688;7.130;2023-02-28T01:12:39;3.50;;;2.97;;
15616;SDS011;7908;51.688;7.130;2023-02-28T01:15:09;3.80;;;3.10;;
15616;SDS011;7908;51.688;7.130;2023-02-28T01:17:38;4.90;;;2.97;;
15616;SDS011;7908;51.688;7.130;2023-02-28T01:20:07;4.87;;;3.20;;
15616;SDS011;7908;51.688;7.130;2023-02-28T01:22:37;4.37;;;2.70;;
15616;SDS011;7908;51.688;7.130;2023-02-28T01:25:07;6.37;;;3.77;;
15616;SDS011;7908;51.688;7.130;2023-02-28T01:27:36;5.83;;;3.70;;
15616;SDS011;7908;51.688;7.130;2023-02-28T01:30:06;7.23;;;3.30;;
15616;SDS011;7908;51.688;7.130;2023-02-28T01:32:36;4.37;;;3.40;;
15616;SDS011;7908;51.688;7.130;2023-02-28T01:35:05;4.97;;;3.60;;
15616;SDS011;7908;51.688;7.130;2023-02-28T01:37:34;4.73;;;3.37;;
15616;SDS011;7908;51.688;7.130;2023-02-28T01:40:03;3.60;;;2.70;;
15616;SDS011;7908;51.688;7.130;2023-02-28T01:42:33;5.80;;;2.83;;
15616;SDS011;7908;51.688;7.130;2023-02-28T01:45:16;5.83;;;3.50;;
15616;SDS011;7908;51.688;7.130;2023-02-28T01:47:49;6.13;;;3.80;;
15616;SDS011;7908;51.688;7.130;2023-02-28T01:50:20;5.00;;;3.40;;
15616;SDS011;7908;51.688;7.130;2023-02-28T01:52:51;4.30;;;3.20;;
15616;SDS011;7908;51.688;7.130;2023-02-28T01:55:22;5.60;;;3.20;;
15616;SDS011;7908;51.688;7.130;2023-02-28T01:57:57;6.47;;;2.90;;
15616;SDS011;7908;51.688;7.130;2023-02-28T02:00:28;6.63;;;2.97;;
15616;SDS011;7908;51.688;7.130;2023-02-28T02:02:58;8.60;;;3.63;;
15616;SDS011;7908;51.688;7.130;2023-02-28T02:05:31;5.30;;;3.70;;
15616;SDS011;7908;51.688;7.130;2023-02-28T02:08:01;4.60;;;3.83;;
15616;SDS011;7908;51.688;7.130;2023-02-28T02:10:32;7.00;;;3.73;;
15616;SDS011;7908;51.688;7.130;2023-02-28T02:16:18;7.43;;;3.30;;
15616;SDS011;7908;51.688;7.130;2023-02-28T02:18:57;4.13;;;2.70;;
15616;SDS011;7908;51.688;7.130;2023-02-28T02:24:48;5.30;;;3.40;;
15616;SDS011;7908;51.688;7.130;2023-02-28T02:27:39;4.83;;;3.37;;
15616;SDS011;7908;51.688;7.130;2023-02-28T02:30:32;7.23;;;3.27;;
15616;SDS011;7908;51.688;7.130;2023-02-28T02:36:15;6.17;;;2.83;;
15616;SDS011;7908;51.688;7.130;2023-02-28T02:38:48;5.07;;;3.10;;
15616;SDS011;7908;51.688;7.130;2023-02-28T02:41:23;6.17;;;3.33;;
15616;SDS011;7908;51.688;7.130;2023-02-28T02:44:01;8.80;;;3.30;;
15616;SDS011;7908;51.688;7.130;2023-02-28T02:46:34;5.60;;;3.70;;
15616;SDS011;7908;51.688;7.130;2023-02-28T02:49:08;7.17;;;3.23;;
15616;SDS011;7908;51.688;7.130;2023-02-28T02:51:41;5.20;;;3.50;;
15616;SDS011;7908;51.688;7.130;2023-02-28T02:54:11;6.40;;;3.37;;
15616;SDS011;7908;51.688;7.130;2023-02-28T02:56:44;3.20;;;2.60;;
15616;SDS011;7908;51.688;7.130;2023-02-28T02:59:15;6.17;;;3.20;;
15616;SDS011;7908;51.688;7.130;2023-02-28T03:01:48;5.73;;;3.07;;
15616;SDS011;7908;51.688;7.130;2023-02-28T03:04:21;7.53;;;3.30;;
15616;SDS011;7908;51.688;7.130;2023-02-28T03:06:53;7.20;;;2.97;;
15616;SDS011;7908;51.688;7.130;2023-02-28T03:09:22;4.97;;;2.87;;
15616;SDS011;7908;51.688;7.130;2023-02-28T03:11:53;5.20;;;3.03;;
15616;SDS011;7908;51.688;7.130;2023-02-28T03:14:29;4.53;;;3.17;;
15616;SDS011;7908;51.688;7.130;2023-02-28T03:17:14;6.77;;;3.27;;
15616;SDS011;7908;51.688;7.130;2023-02-28T03:19:54;5.83;;;3.43;;
15616;SDS011;7908;51.688;7.130;2023-02-28T03:22:39;5.57;;;3.17;;
15616;SDS011;7908;51.688;7.130;2023-02-28T03:25:26;7.60;;;4.07;;
15616;SDS011;7908;51.688;7.130;2023-02-28T03:28:00;7.87;;;3.63;;
15616;SDS011;7908;51.688;7.130;2023-02-28T03:30:35;5.80;;;3.70;;
15616;SDS011;7908;51.688;7.130;2023-02-28T03:33:10;7.37;;;3.50;;
15616;SDS011;7908;51.688;7.130;2023-02-28T03:35:43;6.10;;;3.23;;
15616;SDS011;7908;51.688;7.130;2023-02-28T03:38:18;3.53;;;2.60;;
15616;SDS011;7908;51.688;7.130;2023-02-28T03:40:53;4.10;;;2.67;;
15616;SDS011;7908;51.688;7.130;2023-02-28T03:43:27;3.20;;;2.30;;
15616;SDS011;7908;51.688;7.130;2023-02-28T03:45:59;4.37;;;3.10;;
15616;SDS011;7908;51.688;7.130;2023-02-28T03:48:33;5.40;;;2.37;;
15616;SDS011;7908;51.688;7.130;2023-02-28T03:51:06;6.87;;;2.67;;
15616;SDS011;7908;51.688;7.130;2023-02-28T03:53:40;5.70;;;2.60;;
15616;SDS011;7908;51.688;7.130;2023-02-28T03:56:12;4.20;;;3.20;;
15616;SDS011;7908;51.688;7.130;2023-02-28T03:58:47;7.00;;;3.53;;
15616;SDS011;7908;51.688;7.130;2023-02-28T04:01:19;4.70;;;3.33;;
15616;SDS011;7908;51.688;7.130;2023-02-28T04:03:51;6.70;;;2.70;;
15616;SDS011;7908;51.688;7.130;2023-02-28T04:06:20;5.07;;;3.13;;
15616;SDS011;7908;51.688;7.130;2023-02-28T04:08:51;4.50;;;3.33;;
15616;SDS011;7908;51.688;7.130;2023-02-28T04:11:22;4.67;;;3.00;;
15616;SDS011;7908;51.688;7.130;2023-02-28T04:13:54;5.90;;;3.10;;
15616;SDS011;7908;51.688;7.130;2023-02-28T04:16:23;4.93;;;2.47;;
15616;SDS011;7908;51.688;7.130;2023-02-28T04:19:00;5.87;;;2.90;;
15616;SDS011;7908;51.688;7.130;2023-02-28T04:21:32;4.53;;;3.50;;
15616;SDS011;7908;51.688;7.130;2023-02-28T04:24:04;4.40;;;2.50;;
15616;SDS011;7908;51.688;7.130;2023-02-28T04:26:34;4.87;;;2.93;;
15616;SDS011;7908;51.688;7.130;2023-02-28T04:29:04;7.97;;;3.23;;
15616;SDS011;7908;51.688;7.130;2023-02-28T04:31:33;3.73;;;2.70;;
15616;SDS011;7908;51.688;7.130;2023-02-28T04:34:02;4.67;;;2.80;;
15616;SDS011;7908;51.688;7.130;2023-02-28T04:36:31;4.37;;;2.57;;
15616;SDS011;7908;51.688;7.130;2023-02-28T04:39:00;4.10;;;3.00;;
15616;SDS011;7908;51.688;7.130;2023-02-28T04:41:30;5.47;;;3.27;;
15616;SDS011;7908;51.688;7.130;2023-02-28T04:43:59;3.40;;;2.13;;
15616;SDS011;7908;51.688;7.130;2023-02-28T04:46:27;4.50;;;2.40;;
15616;SDS011;7908;51.688;7.130;2023-02-28T04:48:56;3.20;;;2.40;;
15616;SDS011;7908;51.688;7.130;2023-02-28T04:51:25;2.63;;;2.30;;
15616;SDS011;7908;51.688;7.130;2023-02-28T04:53:54;6.73;;;2.53;;
15616;SDS011;7908;51.688;7.130;2023-02-28T04:56:23;4.50;;;2.37;;
15616;SDS011;7908;51.688;7.130;2023-02-28T04:58:53;5.33;;;2.80;;
15616;SDS011;7908;51.688;7.130;2023-02-28T05:01:23;4.53;;;2.27;;
15616;SDS011;7908;51.688;7.130;2023-02-28T05:03:56;3.40;;;2.13;;
15616;SDS011;7908;51.688;7.130;2023-02-28T05:06:26;3.27;;;2.53;;
15616;SDS011;7908;51.688;7.130;2023-02-28T05:08:56;3.90;;;2.43;;
15616;SDS011;7908;51.688;7.130;2023-02-28T05:11:26;4.13;;;2.60;;
15616;SDS011;7908;51.688;7.130;2023-02-28T05:14:02;3.83;;;2.10;;
15616;SDS011;7908;51.688;7.130;2023-02-28T05:16:31;4.37;;;2.73;;
15616;SDS011;7908;51.688;7.130;2023-02-28T05:19:00;4.50;;;2.50;;
15616;SDS011;7908;51.688;7.130;2023-02-28T05:21:29;4.37;;;2.80;;
15616;SDS011;7908;51.688;7.130;2023-02-28T05:24:00;4.53;;;2.60;;
15616;SDS011;7908;51.688;7.130;2023-02-28T05:26:30;4.40;;;2.67;;
15616;SDS011;7908;51.688;7.130;2023-02-28T05:29:03;3.30;;;2.33;;
15616;SDS011;7908;51.688;7.130;2023-02-28T05:31:31;5.63;;;2.50;;
15616;SDS011;7908;51.688;7.130;2023-02-28T05:34:00;6.70;;;2.53;;
15616;SDS011;7908;51.688;7.130;2023-02-28T05:36:30;3.13;;;2.37;;
15616;SDS011;7908;51.688;7.130;2023-02-28T05:39:00;2.90;;;2.20;;
15616;SDS011;7908;51.688;7.130;2023-02-28T05:41:29;3.13;;;2.30;;
15616;SDS011;7908;51.688;7.130;2023-02-28T05:43:58;3.40;;;2.70;;
15616;SDS011;7908;51.688;7.130;2023-02-28T05:46:28;5.13;;;2.60;;
15616;SDS011;7908;51.688;7.130;2023-02-28T05:48:57;3.10;;;2.00;;
15616;SDS011;7908;51.688;7.130;2023-02-28T05:51:27;3.23;;;2.43;;
15616;SDS011;7908;51.688;7.130;2023-02-28T05:53:58;2.53;;;2.17;;
15616;SDS011;7908;51.688;7.130;2023-02-28T05:56:27;3.40;;;2.13;;
15616;SDS011;7908;51.688;7.130;2023-02-28T05:58:56;2.73;;;2.10;;
15616;SDS011;7908;51.688;7.130;2023-02-28T06:01:32;7.37;;;2.37;;
15616;SDS011;7908;51.688;7.130;2023-02-28T06:04:02;5.33;;;2.03;;
15616;SDS011;7908;51.688;7.130;2023-02-28T06:06:32;5.27;;;2.57;;
15616;SDS011;7908;51.688;7.130;2023-02-28T06:09:02;3.83;;;2.27;;
15616;SDS011;7908;51.688;7.130;2023-02-28T06:11:31;4.00;;;2.50;;
15616;SDS011;7908;51.688;7.130;2023-02-28T06:14:00;6.03;;;2.67;;
15616;SDS011;7908;51.688;7.130;2023-02-28T06:16:30;5.20;;;3.17;;
15616;SDS011;7908;51.688;7.130;2023-02-28T06:19:02;7.90;;;3.33;;
15616;SDS011;7908;51.688;7.130;2023-02-28T06:21:31;5.30;;;3.10;;
15616;SDS011;7908;51.688;7.130;2023-02-28T06:24:00;4.97;;;2.80;;
15616;SDS011;7908;51.688;7.130;2023-02-28T06:26:30;5.20;;;2.50;;
15616;SDS011;7908;51.688;7.130;2023-02-28T06:28:58;6.97;;;3.03;;
15616;SDS011;7908;51.688;7.130;2023-02-28T06:31:28;4.37;;;3.40;;
15616;SDS011;7908;51.688;7.130;2023-02-28T06:33:58;7.63;;;3.30;;
15616;SDS011;7908;51.688;7.130;2023-02-28T06:36:27;4.73;;;2.53;;
15616;SDS011;7908;51.688;7.130;2023-02-28T06:38:56;9.60;;;3.37;;
15616;SDS011;7908;51.688;7.130;2023-02-28T06:41:25;4.87;;;3.20;;
15616;SDS011;7908;51.688;7.130;2023-02-28T06:43:56;6.53;;;3.27;;
15616;SDS011;7908;51.688;7.130;2023-02-28T06:46:25;4.53;;;2.80;;
15616;SDS011;7908;51.688;7.130;2023-02-28T06:48:54;8.43;;;2.70;;
15616;SDS011;7908;51.688;7.130;2023-02-28T06:51:24;4.27;;;2.97;;
15616;SDS011;7908;51.688;7.130;2023-02-28T06:53:53;7.27;;;3.70;;
15616;SDS011;7908;51.688;7.130;2023-02-28T06:56:23;8.03;;;3.83;;
15616;SDS011;7908;51.688;7.130;2023-02-28T06:58:51;6.80;;;3.87;;
15616;SDS011;7908;51.688;7.130;2023-02-28T07:01:20;5.97;;;2.97;;
15616;SDS011;7908;51.688;7.130;2023-02-28T07:03:50;10.13;;;3.57;;
15616;SDS011;7908;51.688;7.130;2023-02-28T07:06:19;5.90;;;3.50;;
15616;SDS011;7908;51.688;7.130;2023-02-28T07:08:52;6.03;;;3.20;;
15616;SDS011;7908;51.688;7.130;2023-02-28T07:11:22;5.87;;;3.13;;
15616;SDS011;7908;51.688;7.130;2023-02-28T07:13:53;8.83;;;3.17;;
15616;SDS011;7908;51.688;7.130;2023-02-28T07:16:23;8.43;;;3.90;;
15616;SDS011;7908;51.688;7.130;2023-02-28T07:18:52;12.00;;;3.93;;
15616;SDS011;7908;51.688;7.130;2023-02-28T07:21:21;7.27;;;3.87;;
15616;SDS011;7908;51.688;7.130;2023-02-28T07:23:52;6.23;;;3.93;;
15616;SDS011;7908;51.688;7.130;2023-02-28T07:26:20;7.33;;;4.13;;
15616;SDS011;7908;51.688;7.130;2023-02-28T07:28:49;8.63;;;4.37;;
15616;SDS011;7908;51.688;7.130;2023-02-28T07:31:18;6.10;;;3.80;;
15616;SDS011;7908;51.688;7.130;2023-02-28T07:33:47;6.90;;;3.80;;
15616;SDS011;7908;51.688;7.130;2023-02-28T07:36:17;5.47;;;3.53;;
15616;SDS011;7908;51.688;7.130;2023-02-28T07:38:46;8.60;;;4.83;;
15616;SDS011;7908;51.688;7.130;2023-02-28T07:41:19;9.53;;;4.50;;
15616;SDS011;7908;51.688;7.130;2023-02-28T07:43:52;9.27;;;4.53;;
15616;SDS011;7908;51.688;7.130;2023-02-28T07:46:21;7.53;;;4.90;;
15616;SDS011;7908;51.688;7.130;2023-02-28T07:48:50;7.63;;;4.27;;
15616;SDS011;7908;51.688;7.130;2023-02-28T07:51:20;5.60;;;4.27;;
15616;SDS011;7908;51.688;7.130;2023-02-28T07:53:50;10.40;;;5.90;;
15616;SDS011;7908;51.688;7.130;2023-02-28T07:56:20;7.53;;;5.10;;
15616;SDS011;7908;51.688;7.130;2023-02-28T07:58:48;8.87;;;5.60;;
15616;SDS011;7908;51.688;7.130;2023-02-28T08:01:17;8.93;;;5.40;;
15616;SDS011;7908;51.688;7.130;2023-02-28T08:03:46;7.53;;;5.33;;
15616;SDS011;7908;51.688;7.130;2023-02-28T08:06:15;8.87;;;5.23;;
15616;SDS011;7908;51.688;7.130;2023-02-28T08:08:45;7.40;;;4.87;;
15616;SDS011;7908;51.688;7.130;2023-02-28T08:11:14;9.00;;;5.40;;
15616;SDS011;7908;51.688;7.130;2023-02-28T08:13:45;8.47;;;5.43;;
15616;SDS011;7908;51.688;7.130;2023-02-28T08:16:14;10.00;;;5.53;;
15616;SDS011;7908;51.688;7.130;2023-02-28T08:18:49;7.80;;;5.70;;
15616;SDS011;7908;51.688;7.130;2023-02-28T08:21:18;8.83;;;5.13;;
15616;SDS011;7908;51.688;7.130;2023-02-28T08:23:48;7.20;;;4.80;;
15616;SDS011;7908;51.688;7.130;2023-02-28T08:26:17;8.03;;;4.90;;
15616;SDS011;7908;51.688;7.130;2023-02-28T08:28:48;7.63;;;5.10;;
15616;SDS011;7908;51.688;7.130;2023-02-28T08:31:17;6.13;;;4.30;;
15616;SDS011;7908;51.688;7.130;2023-02-28T08:33:46;8.27;;;4.30;;
15616;SDS011;7908;51.688;7.130;2023-02-28T08:36:18;8.57;;;4.90;;
15616;SDS011;7908;51.688;7.130;2023-02-28T08:38:47;7.30;;;4.33;;
15616;SDS011;7908;51.688;7.130;2023-02-28T08:41:15;5.60;;;3.70;;
15616;SDS011;7908;51.688;7.130;2023-02-28T08:43:44;7.50;;;3.63;;
15616;SDS011;7908;51.688;7.130;2023-02-28T08:46:14;4.67;;;3.17;;
15616;SDS011;7908;51.688;7.130;2023-02-28T08:48:43;4.53;;;3.13;;
15616;SDS011;7908;51.688;7.130;2023-02-28T08:51:12;5.17;;;2.90;;
15616;SDS011;7908;51.688;7.130;2023-02-28T08:53:47;3.07;;;2.33;;
15616;SDS011;7908;51.688;7.130;2023-02-28T08:56:16;2.53;;;2.07;;
15616;SDS011;7908;51.688;7.130;2023-02-28T08:58:46;3.57;;;2.43;;
15616;SDS011;7908;51.688;7.130;2023-02-28T09:01:18;3.20;;;2.20;;
15616;SDS011;7908;51.688;7.130;2023-02-28T09:03:48;5.10;;;2.30;;
15616;SDS011;7908;51.688;7.130;2023-02-28T09:06:18;3.73;;;2.33;;
15616;SDS011;7908;51.688;7.130;2023-02-28T09:08:48;3.83;;;2.20;;
15616;SDS011;7908;51.688;7.130;2023-02-28T09:11:16;4.23;;;2.03;;
15616;SDS011;7908;51.688;7.130;2023-02-28T09:13:46;3.93;;;2.03;;
15616;SDS011;7908;51.688;7.130;2023-02-28T09:16:15;4.07;;;2.10;;
15616;SDS011;7908;51.688;7.130;2023-02-28T09:18:45;2.97;;;2.10;;
15616;SDS011;7908;51.688;7.130;2023-02-28T09:21:15;4.63;;;2.50;;
15616;SDS011;7908;51.688;7.130;2023-02-28T09:23:48;4.23;;;1.80;;
15616;SDS011;7908;51.688;7.130;2023-02-28T09:26:18;3.27;;;1.90;;
15616;SDS011;7908;51.688;7.130;2023-02-28T09:28:48;3.67;;;1.50;;
15616;SDS011;7908;51.688;7.130;2023-02-28T09:31:19;3.00;;;1.43;;
15616;SDS011;7908;51.688;7.130;2023-02-28T09:33:51;2.30;;;1.60;;
15616;SDS011;7908;51.688;7.130;2023-02-28T09:36:21;3.10;;;1.90;;
15616;SDS011;7908;51.688;7.130;2023-02-28T09:39:07;2.57;;;1.67;;
15616;SDS011;7908;51.688;7.130;2023-02-28T09:41:37;2.87;;;1.60;;
15616;SDS011;7908;51.688;7.130;2023-02-28T09:44:15;2.00;;;1.50;;
15616;SDS011;7908;51.688;7.130;2023-02-28T09:46:53;2.97;;;1.77;;
15616;SDS011;7908;51.688;7.130;2023-02-28T09:49:28;2.47;;;1.40;;
15616;SDS011;7908;51.688;7.130;2023-02-28T09:52:05;1.37;;;1.13;;
15616;SDS011;7908;51.688;7.130;2023-02-28T09:54:38;2.33;;;1.40;;
15616;SDS011;7908;51.688;7.130;2023-02-28T09:57:08;2.87;;;1.30;;
15616;SDS011;7908;51.688;7.130;2023-02-28T09:59:46;2.23;;;1.53;;
15616;SDS011;7908;51.688;7.130;2023-02-28T10:02:41;4.17;;;1.80;;
15616;SDS011;7908;51.688;7.130;2023-02-28T10:05:19;2.43;;;1.53;;
15616;SDS011;7908;51.688;7.130;2023-02-28T10:07:55;2.70;;;1.77;;
15616;SDS011;7908;51.688;7.130;2023-02-28T10:10:33;2.77;;;1.50;;
15616;SDS011;7908;51.688;7.130;2023-02-28T10:13:11;2.20;;;1.20;;
15616;SDS011;7908;51.688;7.130;2023-02-28T10:15:46;2.47;;;1.70;;
15616;SDS011;7908;51.688;7.130;2023-02-28T10:18:20;3.50;;;1.37;;
15616;SDS011;7908;51.688;7.130;2023-02-28T10:20:52;1.73;;;1.20;;
15616;SDS011;7908;51.688;7.130;2023-02-28T10:23:25;1.33;;;1.10;;
15616;SDS011;7908;51.688;7.130;2023-02-28T10:25:57;1.83;;;1.40;;
15616;SDS011;7908;51.688;7.130;2023-02-28T10:28:29;3.17;;;1.40;;
15616;SDS011;7908;51.688;7.130;2023-02-28T10:30:58;3.27;;;1.10;;
15616;SDS011;7908;51.688;7.130;2023-02-28T10:33:30;2.07;;;1.13;;
15616;SDS011;7908;51.688;7.130;2023-02-28T10:36:01;1.97;;;1.17;;
15616;SDS011;7908;51.688;7.130;2023-02-28T10:38:46;1.43;;;1.00;;
15616;SDS011;7908;51.688;7.130;2023-02-28T10:41:17;3.87;;;1.30;;
15616;SDS011;7908;51.688;7.130;2023-02-28T10:44:12;1.87;;;1.30;;
15616;SDS011;7908;51.688;7.130;2023-02-28T10:46:45;1.70;;;1.27;;
15616;SDS011;7908;51.688;7.130;2023-02-28T10:49:17;2.47;;;1.43;;
15616;SDS011;7908;51.688;7.130;2023-02-28T10:51:49;2.67;;;1.30;;
15616;SDS011;7908;51.688;7.130;2023-02-28T10:54:22;2.37;;;1.40;;
15616;SDS011;7908;51.688;7.130;2023-02-28T10:59:44;3.80;;;1.57;;
15616;SDS011;7908;51.688;7.130;2023-02-28T11:02:28;3.50;;;1.70;;
15616;SDS011;7908;51.688;7.130;2023-02-28T11:07:57;2.90;;;1.47;;
15616;SDS011;7908;51.688;7.130;2023-02-28T11:10:32;2.03;;;1.20;;
15616;SDS011;7908;51.688;7.130;2023-02-28T11:13:01;2.03;;;1.43;;
15616;SDS011;7908;51.688;7.130;2023-02-28T11:15:32;1.83;;;1.50;;
15616;SDS011;7908;51.688;7.130;2023-02-28T11:18:04;2.17;;;1.30;;
15616;SDS011;7908;51.688;7.130;2023-02-28T11:20:48;3.07;;;1.37;;
15616;SDS011;7908;51.688;7.130;2023-02-28T11:23:19;2.03;;;1.30;;
15616;SDS011;7908;51.688;7.130;2023-02-28T11:25:49;2.57;;;1.50;;
15616;SDS011;7908;51.688;7.130;2023-02-28T11:28:25;1.47;;;1.10;;
15616;SDS011;7908;51.688;7.130;2023-02-28T11:31:00;2.63;;;1.20;;
15616;SDS011;7908;51.688;7.130;2023-02-28T11:33:32;2.33;;;1.23;;
15616;SDS011;7908;51.688;7.130;2023-02-28T11:36:11;2.13;;;1.60;;
15616;SDS011;7908;51.688;7.130;2023-02-28T11:38:42;1.83;;;1.40;;
15616;SDS011;7908;51.688;7.130;2023-02-28T11:44:13;1.40;;;1.30;;
15616;SDS011;7908;51.688;7.130;2023-02-28T11:46:56;8.23;;;2.07;;
15616;SDS011;7908;51.688;7.130;2023-02-28T11:49:33;1.70;;;1.47;;
15616;SDS011;7908;51.688;7.130;2023-02-28T11:52:15;1.97;;;1.27;;
15616;SDS011;7908;51.688;7.130;2023-02-28T12:00:42;2.30;;;1.30;;
15616;SDS011;7908;51.688;7.130;2023-02-28T12:03:27;3.77;;;1.77;;
15616;SDS011;7908;51.688;7.130;2023-02-28T12:06:11;2.63;;;1.60;;
15616;SDS011;7908;51.688;7.130;2023-02-28T12:08:53;2.53;;;1.37;;
15616;SDS011;7908;51.688;7.130;2023-02-28T12:11:35;2.23;;;1.30;;
15616;SDS011;7908;51.688;7.130;2023-02-28T12:17:23;3.03;;;1.57;;
15616;SDS011;7908;51.688;7.130;2023-02-28T12:20:02;1.80;;;1.50;;
15616;SDS011;7908;51.688;7.130;2023-02-28T12:22:40;2.40;;;1.50;;
15616;SDS011;7908;51.688;7.130;2023-02-28T12:28:22;4.03;;;1.60;;
15616;SDS011;7908;51.688;7.130;2023-02-28T12:30:55;2.67;;;1.80;;
15616;SDS011;7908;51.688;7.130;2023-02-28T12:33:31;2.73;;;1.70;;
15616;SDS011;7908;51.688;7.130;2023-02-28T12:36:03;2.00;;;1.47;;
15616;SDS011;7908;51.688;7.130;2023-02-28T12:38:39;1.83;;;1.30;;
15616;SDS011;7908;51.688;7.130;2023-02-28T12:41:16;1.40;;;1.30;;
15616;SDS011;7908;51.688;7.130;2023-02-28T12:43:50;2.53;;;1.50;;
15616;SDS011;7908;51.688;7.130;2023-02-28T12:46:27;2.67;;;1.40;;
15616;SDS011;7908;51.688;7.130;2023-02-28T12:49:04;2.30;;;1.50;;
15616;SDS011;7908;51.688;7.130;2023-02-28T12:51:36;2.67;;;1.43;;
15616;SDS011;7908;51.688;7.130;2023-02-28T12:54:09;1.57;;;1.20;;
15616;SDS011;7908;51.688;7.130;2023-02-28T12:56:47;2.23;;;1.30;;
15616;SDS011;7908;51.688;7.130;2023-02-28T12:59:22;3.03;;;1.60;;
15616;SDS011;7908;51.688;7.130;2023-02-28T13:05:16;1.17;;;1.03;;
15616;SDS011;7908;51.688;7.130;2023-02-28T13:11:01;2.37;;;1.10;;
15616;SDS011;7908;51.688;7.130;2023-02-28T13:13:42;2.43;;;1.57;;
15616;SDS011;7908;51.688;7.130;2023-02-28T13:16:14;2.00;;;1.40;;
15616;SDS011;7908;51.688;7.130;2023-02-28T13:18:43;2.27;;;1.40;;
15616;SDS011;7908;51.688;7.130;2023-02-28T13:21:24;3.67;;;1.40;;
15616;SDS011;7908;51.688;7.130;2023-02-28T13:23:58;2.53;;;1.60;;
15616;SDS011;7908;51.688;7.130;2023-02-28T13:29:38;2.20;;;1.60;;
15616;SDS011;7908;51.688;7.130;2023-02-28T13:32:19;2.83;;;1.63;;
15616;SDS011;7908;51.688;7.130;2023-02-28T13:44:23;2.57;;;1.53;;
15616;SDS011;7908;51.688;7.130;2023-02-28T13:55:58;2.07;;;1.60;;
15616;SDS011;7908;51.688;7.130;2023-02-28T13:58:35;1.83;;;1.43;;
15616;SDS011;7908;51.688;7.130;2023-02-28T14:01:15;2.23;;;1.50;;
15616;SDS011;7908;51.688;7.130;2023-02-28T14:04:16;1.90;;;1.43;;
15616;SDS011;7908;51.688;7.130;2023-02-28T14:07:10;2.40;;;1.67;;
15616;SDS011;7908;51.688;7.130;2023-02-28T14:09:49;2.37;;;1.80;;
15616;SDS011;7908;51.688;7.130;2023-02-28T14:15:26;3.13;;;1.77;;
15616;SDS011;7908;51.688;7.130;2023-02-28T14:18:15;2.03;;;1.50;;
15616;SDS011;7908;51.688;7.130;2023-02-28T14:20:54;1.90;;;1.50;;
15616;SDS011;7908;51.688;7.130;2023-02-28T14:23:34;2.57;;;1.80;;
15616;SDS011;7908;51.688;7.130;2023-02-28T14:26:13;2.73;;;1.80;;
15616;SDS011;7908;51.688;7.130;2023-02-28T14:29:02;4.83;;;2.20;;
15616;SDS011;7908;51.688;7.130;2023-02-28T14:31:48;3.00;;;1.83;;
15616;SDS011;7908;51.688;7.130;2023-02-28T14:34:30;4.73;;;3.20;;
15616;SDS011;7908;51.688;7.130;2023-02-28T14:37:05;2.00;;;1.77;;
15616;SDS011;7908;51.688;7.130;2023-02-28T14:39:43;2.93;;;1.80;;
15616;SDS011;7908;51.688;7.130;2023-02-28T14:44:59;3.93;;;1.97;;
15616;SDS011;7908;51.688;7.130;2023-02-28T14:47:30;2.47;;;1.60;;
15616;SDS011;7908;51.688;7.130;2023-02-28T14:50:04;2.53;;;1.80;;
15616;SDS011;7908;51.688;7.130;2023-02-28T14:52:35;2.67;;;1.63;;
15616;SDS011;7908;51.688;7.130;2023-02-28T14:55:09;2.07;;;1.70;;
15616;SDS011;7908;51.688;7.130;2023-02-28T14:57:50;3.57;;;2.00;;
15616;SDS011;7908;51.688;7.130;2023-02-28T15:00:22;4.73;;;1.80;;
15616;SDS011;7908;51.688;7.130;2023-02-28T15:02:54;2.83;;;1.90;;
15616;SDS011;7908;51.688;7.130;2023-02-28T15:05:26;3.20;;;1.80;;
15616;SDS011;7908;51.688;7.130;2023-02-28T15:08:09;4.30;;;1.90;;
15616;SDS011;7908;51.688;7.130;2023-02-28T15:10:42;2.67;;;2.10;;
15616;SDS011;7908;51.688;7.130;2023-02-28T15:13:14;2.83;;;1.90;;
15616;SDS011;7908;51.688;7.130;2023-02-28T15:15:44;3.63;;;2.73;;
15616;SDS011;7908;51.688;7.130;2023-02-28T15:18:32;2.73;;;2.07;;
15616;SDS011;7908;51.688;7.130;2023-02-28T15:21:09;4.97;;;2.10;;
15616;SDS011;7908;51.688;7.130;2023-02-28T15:23:45;2.50;;;2.03;;
15616;SDS011;7908;51.688;7.130;2023-02-28T15:26:19;2.80;;;1.93;;
15616;SDS011;7908;51.688;7.130;2023-02-28T15:28:54;3.37;;;1.80;;
15616;SDS011;7908;51.688;7.130;2023-02-28T15:31:27;3.30;;;2.20;;
15616;SDS011;7908;51.688;7.130;2023-02-28T15:34:12;4.70;;;2.00;;
15616;SDS011;7908;51.688;7.130;2023-02-28T15:36:50;5.97;;;2.10;;
15616;SDS011;7908;51.688;7.130;2023-02-28T15:39:19;5.47;;;3.53;;
15616;SDS011;7908;51.688;7.130;2023-02-28T15:41:51;6.27;;;3.80;;
15616;SDS011;7908;51.688;7.130;2023-02-28T15:44:37;5.07;;;3.07;;
15616;SDS011;7908;51.688;7.130;2023-02-28T15:47:06;4.70;;;2.83;;
15616;SDS011;7908;51.688;7.130;2023-02-28T15:49:45;3.30;;;2.40;;
15616;SDS011;7908;51.688;7.130;2023-02-28T15:52:17;4.47;;;2.17;;
15616;SDS011;7908;51.688;7.130;2023-02-28T15:54:49;3.80;;;2.30;;
15616;SDS011;7908;51.688;7.130;2023-02-28T15:57:20;5.60;;;2.40;;
15616;SDS011;7908;51.688;7.130;2023-02-28T15:59:52;2.87;;;2.13;;
15616;SDS011;7908;51.688;7.130;2023-02-28T16:02:30;3.73;;;2.50;;
15616;SDS011;7908;51.688;7.130;2023-02-28T16:05:01;3.47;;;2.30;;
15616;SDS011;7908;51.688;7.130;2023-02-28T16:07:48;2.30;;;2.10;;
15616;SDS011;7908;51.688;7.130;2023-02-28T16:10:17;2.30;;;2.00;;
15616;SDS011;7908;51.688;7.130;2023-02-28T16:12:47;2.87;;;1.70;;
15616;SDS011;7908;51.688;7.130;2023-02-28T16:15:18;2.50;;;1.93;;
15616;SDS011;7908;51.688;7.130;2023-02-28T16:17:50;4.30;;;2.33;;
15616;SDS011;7908;51.688;7.130;2023-02-28T16:20:20;4.43;;;2.30;;
15616;SDS011;7908;51.688;7.130;2023-02-28T16:22:50;3.53;;;2.23;;
15616;SDS011;7908;51.688;7.130;2023-02-28T16:25:20;3.73;;;2.30;;
15616;SDS011;7908;51.688;7.130;2023-02-28T16:27:56;4.43;;;2.50;;
15616;SDS011;7908;51.688;7.130;2023-02-28T16:30:27;4.77;;;2.20;;
15616;SDS011;7908;51.688;7.130;2023-02-28T16:32:58;3.50;;;2.30;;
15616;SDS011;7908;51.688;7.130;2023-02-28T16:35:27;2.77;;;2.30;;
15616;SDS011;7908;51.688;7.130;2023-02-28T16:37:58;4.50;;;2.33;;